sensor_id;sensor_type;location;lat;lon;timestamp;pressure;altitude;pressure_sealevel;temperature;humidity
27984;BME280;15317;50.360;8.726;2022-12-08T00:00:39;98957.75;;;2.73;100.00
27984;BME280;15317;50.360;8.726;2022-12-08T00:04:42;98951.94;;;2.68;100.00
27984;BME280;15317;50.360;8.726;2022-12-08T00:08:58;98948.66;;;2.65;100.00
27984;BME280;15317;50.360;8.726;2022-12-08T00:13:18;98953.66;;;2.58;100.00
27984;BME280;15317;50.360;8.726;2022-12-08T00:17:20;98945.84;;;2.55;100.00
27984;BME280;15317;50.360;8.726;2022-12-08T00:21:23;98947.78;;;2.53;100.00
27984;BME280;15317;50.360;8.726;2022-12-08T00:25:25;98942.06;;;2.47;100.00
27984;BME280;15317;50.360;8.726;2022-12-08T00:29:28;98938.78;;;2.43;100.00
27984;BME280;15317;50.360;8.726;2022-12-08T00:33:30;98937.94;;;2.43;100.00
27984;BME280;15317;50.360;8.726;2022-12-08T00:37:33;98941.47;;;2.43;100.00
27984;BME280;15317;50.360;8.726;2022-12-08T00:41:35;98936.00;;;2.45;100.00
27984;BME280;15317;50.360;8.726;2022-12-08T00:45:55;98936.00;;;2.45;100.00
27984;BME280;15317;50.360;8.726;2022-12-08T00:49:57;98925.28;;;2.45;100.00
27984;BME280;15317;50.360;8.726;2022-12-08T00:54:00;98921.72;;;2.44;100.00
27984;BME280;15317;50.360;8.726;2022-12-08T00:58:03;98913.69;;;2.44;100.00
27984;BME280;15317;50.360;8.726;2022-12-08T01:02:05;98921.00;;;2.42;100.00
27984;BME280;15317;50.360;8.726;2022-12-08T01:06:08;98922.22;;;2.38;100.00
27984;BME280;15317;50.360;8.726;2022-12-08T01:10:11;98925.41;;;2.32;100.00
27984;BME280;15317;50.360;8.726;2022-12-08T01:14:14;98921.97;;;2.30;100.00
27984;BME280;15317;50.360;8.726;2022-12-08T01:18:16;98914.16;;;2.27;100.00
27984;BME280;15317;50.360;8.726;2022-12-08T01:22:18;98916.84;;;2.27;100.00
27984;BME280;15317;50.360;8.726;2022-12-08T01:26:21;98916.16;;;2.25;100.00
27984;BME280;15317;50.360;8.726;2022-12-08T01:30:23;98908.34;;;2.22;100.00
27984;BME280;15317;50.360;8.726;2022-12-08T01:34:25;98912.94;;;2.20;100.00
27984;BME280;15317;50.360;8.726;2022-12-08T01:38:27;98907.75;;;2.18;100.00
27984;BME280;15317;50.360;8.726;2022-12-08T01:42:31;98903.59;;;2.14;100.00
27984;BME280;15317;50.360;8.726;2022-12-08T01:46:35;98907.34;;;2.12;100.00
27984;BME280;15317;50.360;8.726;2022-12-08T01:50:38;98906.63;;;2.10;100.00
27984;BME280;15317;50.360;8.726;2022-12-08T01:54:53;98906.84;;;2.07;100.00
27984;BME280;15317;50.360;8.726;2022-12-08T01:58:59;98910.41;;;2.07;100.00
27984;BME280;15317;50.360;8.726;2022-12-08T02:03:05;98894.31;;;2.07;100.00
27984;BME280;15317;50.360;8.726;2022-12-08T02:07:08;98894.22;;;2.09;100.00
27984;BME280;15317;50.360;8.726;2022-12-08T02:11:13;98887.78;;;2.11;100.00
27984;BME280;15317;50.360;8.726;2022-12-08T02:15:16;98884.22;;;2.11;100.00
27984;BME280;15317;50.360;8.726;2022-12-08T02:24:08;98883.38;;;2.10;100.00
27984;BME280;15317;50.360;8.726;2022-12-08T02:28:38;98885.09;;;2.11;100.00
27984;BME280;15317;50.360;8.726;2022-12-08T02:33:12;98874.38;;;2.11;100.00
27984;BME280;15317;50.360;8.726;2022-12-08T02:37:27;98878.72;;;2.12;100.00
27984;BME280;15317;50.360;8.726;2022-12-08T02:41:38;98873.38;;;2.12;100.00
27984;BME280;15317;50.360;8.726;2022-12-08T02:45:46;98862.53;;;2.14;100.00
27984;BME280;15317;50.360;8.726;2022-12-08T02:49:49;98865.97;;;2.16;100.00
27984;BME280;15317;50.360;8.726;2022-12-08T02:53:53;98862.31;;;2.17;100.00
27984;BME280;15317;50.360;8.726;2022-12-08T02:58:12;98861.34;;;2.18;100.00
27984;BME280;15317;50.360;8.726;2022-12-08T03:02:40;98856.97;;;2.17;100.00
27984;BME280;15317;50.360;8.726;2022-12-08T03:06:48;98846.13;;;2.18;100.00
27984;BME280;15317;50.360;8.726;2022-12-08T03:10:58;98840.63;;;2.20;100.00
27984;BME280;15317;50.360;8.726;2022-12-08T03:15:06;98839.66;;;2.21;100.00
27984;BME280;15317;50.360;8.726;2022-12-08T03:19:14;98833.31;;;2.22;100.00
27984;BME280;15317;50.360;8.726;2022-12-08T03:23:18;98840.63;;;2.20;100.00
27984;BME280;15317;50.360;8.726;2022-12-08T03:27:23;98836.22;;;2.19;100.00
27984;BME280;15317;50.360;8.726;2022-12-08T03:31:30;98825.78;;;2.16;100.00
27984;BME280;15317;50.360;8.726;2022-12-08T03:35:36;98826.00;;;2.13;100.00
27984;BME280;15317;50.360;8.726;2022-12-08T03:39:40;98819.69;;;2.14;100.00
27984;BME280;15317;50.360;8.726;2022-12-08T03:43:44;98813.47;;;2.13;100.00
27984;BME280;15317;50.360;8.726;2022-12-08T03:47:46;98812.78;;;2.11;100.00
27984;BME280;15317;50.360;8.726;2022-12-08T03:51:48;98807.53;;;2.10;100.00
27984;BME280;15317;50.360;8.726;2022-12-08T03:55:51;98803.03;;;2.10;100.00
27984;BME280;15317;50.360;8.726;2022-12-08T03:59:55;98799.00;;;2.05;100.00
27984;BME280;15317;50.360;8.726;2022-12-08T04:03:57;98795.84;;;1.99;100.00
27984;BME280;15317;50.360;8.726;2022-12-08T04:07:59;98796.94;;;1.97;100.00
27984;BME280;15317;50.360;8.726;2022-12-08T04:12:01;98794.97;;;1.99;100.00
27984;BME280;15317;50.360;8.726;2022-12-08T04:16:06;98787.09;;;1.97;100.00
27984;BME280;15317;50.360;8.726;2022-12-08T04:20:09;98790.38;;;2.01;100.00
27984;BME280;15317;50.360;8.726;2022-12-08T04:24:11;98791.94;;;2.04;100.00
27984;BME280;15317;50.360;8.726;2022-12-08T04:28:13;98785.34;;;2.08;100.00
27984;BME280;15317;50.360;8.726;2022-12-08T04:32:17;98784.50;;;2.07;100.00
27984;BME280;15317;50.360;8.726;2022-12-08T04:36:19;98779.25;;;2.06;100.00
27984;BME280;15317;50.360;8.726;2022-12-08T04:40:21;98771.84;;;2.09;100.00
27984;BME280;15317;50.360;8.726;2022-12-08T04:44:23;98776.09;;;2.12;100.00
27984;BME280;15317;50.360;8.726;2022-12-08T04:48:27;98774.16;;;2.14;100.00
27984;BME280;15317;50.360;8.726;2022-12-08T04:52:29;98765.03;;;2.16;100.00
27984;BME280;15317;50.360;8.726;2022-12-08T04:56:31;98760.00;;;2.23;100.00
27984;BME280;15317;50.360;8.726;2022-12-08T05:00:33;98773.66;;;2.20;100.00
27984;BME280;15317;50.360;8.726;2022-12-08T05:04:37;98761.09;;;2.20;100.00
27984;BME280;15317;50.360;8.726;2022-12-08T05:08:39;98759.28;;;2.21;100.00
27984;BME280;15317;50.360;8.726;2022-12-08T05:12:41;98757.81;;;2.28;100.00
27984;BME280;15317;50.360;8.726;2022-12-08T05:16:44;98758.06;;;2.25;100.00
27984;BME280;15317;50.360;8.726;2022-12-08T05:20:47;98754.66;;;2.23;100.00
27984;BME280;15317;50.360;8.726;2022-12-08T05:24:50;98761.97;;;2.21;100.00
27984;BME280;15317;50.360;8.726;2022-12-08T05:28:52;98751.00;;;2.24;100.00
27984;BME280;15317;50.360;8.726;2022-12-08T05:32:54;98747.59;;;2.22;100.00
27984;BME280;15317;50.360;8.726;2022-12-08T05:36:57;98748.16;;;2.25;100.00
27984;BME280;15317;50.360;8.726;2022-12-08T05:40:59;98749.53;;;2.31;100.00
27984;BME280;15317;50.360;8.726;2022-12-08T05:45:02;98742.47;;;2.30;100.00
27984;BME280;15317;50.360;8.726;2022-12-08T05:49:04;98746.34;;;2.37;100.00
27984;BME280;15317;50.360;8.726;2022-12-08T05:53:08;98739.50;;;2.33;100.00
27984;BME280;15317;50.360;8.726;2022-12-08T05:57:10;98749.13;;;2.35;100.00
27984;BME280;15317;50.360;8.726;2022-12-08T06:01:30;98737.56;;;2.35;100.00
27984;BME280;15317;50.360;8.726;2022-12-08T06:05:32;98740.97;;;2.37;100.00
27984;BME280;15317;50.360;8.726;2022-12-08T06:09:36;98739.00;;;2.39;100.00
27984;BME280;15317;50.360;8.726;2022-12-08T06:13:38;98737.31;;;2.38;100.00
27984;BME280;15317;50.360;8.726;2022-12-08T06:17:40;98728.28;;;2.39;100.00
27984;BME280;15317;50.360;8.726;2022-12-08T06:21:42;98723.06;;;2.37;100.00
27984;BME280;15317;50.360;8.726;2022-12-08T06:25:45;98724.91;;;2.37;100.00
27984;BME280;15317;50.360;8.726;2022-12-08T06:29:47;98735.84;;;2.34;100.00
27984;BME280;15317;50.360;8.726;2022-12-08T06:33:50;98717.84;;;2.36;100.00
27984;BME280;15317;50.360;8.726;2022-12-08T06:37:53;98720.06;;;2.31;100.00
27984;BME280;15317;50.360;8.726;2022-12-08T06:41:56;98722.47;;;2.34;100.00
27984;BME280;15317;50.360;8.726;2022-12-08T06:46:17;98735.00;;;2.33;100.00
27984;BME280;15317;50.360;8.726;2022-12-08T06:50:19;98721.94;;;2.40;100.00
27984;BME280;15317;50.360;8.726;2022-12-08T06:54:21;98728.56;;;2.36;100.00
27984;BME280;15317;50.360;8.726;2022-12-08T06:58:25;98722.91;;;2.39;100.00
27984;BME280;15317;50.360;8.726;2022-12-08T07:02:27;98725.13;;;2.34;100.00
27984;BME280;15317;50.360;8.726;2022-12-08T07:06:29;98711.63;;;2.35;100.00
27984;BME280;15317;50.360;8.726;2022-12-08T07:10:32;98712.47;;;2.36;100.00
27984;BME280;15317;50.360;8.726;2022-12-08T07:14:35;98722.34;;;2.35;100.00
27984;BME280;15317;50.360;8.726;2022-12-08T07:18:38;98724.16;;;2.35;100.00
27984;BME280;15317;50.360;8.726;2022-12-08T07:22:47;98716.84;;;2.37;100.00
27984;BME280;15317;50.360;8.726;2022-12-08T07:26:49;98724.91;;;2.37;100.00
27984;BME280;15317;50.360;8.726;2022-12-08T07:30:52;98723.19;;;2.36;100.00
27984;BME280;15317;50.360;8.726;2022-12-08T07:34:54;98718.56;;;2.38;100.00
27984;BME280;15317;50.360;8.726;2022-12-08T07:38:56;98720.97;;;2.41;100.00
27984;BME280;15317;50.360;8.726;2022-12-08T07:42:58;98718.06;;;2.44;100.00
27984;BME280;15317;50.360;8.726;2022-12-08T07:47:02;98721.44;;;2.46;100.00
27984;BME280;15317;50.360;8.726;2022-12-08T07:51:04;98709.75;;;2.47;100.00
27984;BME280;15317;50.360;8.726;2022-12-08T07:55:07;98722.63;;;2.53;100.00
27984;BME280;15317;50.360;8.726;2022-12-08T07:59:09;98716.41;;;2.53;100.00
27984;BME280;15317;50.360;8.726;2022-12-08T08:03:13;98718.72;;;2.57;100.00
27984;BME280;15317;50.360;8.726;2022-12-08T08:07:15;98713.81;;;2.62;100.00
27984;BME280;15317;50.360;8.726;2022-12-08T08:11:17;98714.69;;;2.63;100.00
27984;BME280;15317;50.360;8.726;2022-12-08T08:15:20;98716.09;;;2.67;100.00
27984;BME280;15317;50.360;8.726;2022-12-08T08:19:23;98713.06;;;2.71;100.00
27984;BME280;15317;50.360;8.726;2022-12-08T08:23:25;98710.09;;;2.74;100.00
27984;BME280;15317;50.360;8.726;2022-12-08T08:27:28;98711.28;;;2.82;100.00
27984;BME280;15317;50.360;8.726;2022-12-08T08:31:30;98710.31;;;2.83;100.00
27984;BME280;15317;50.360;8.726;2022-12-08T08:35:33;98713.31;;;2.89;100.00
27984;BME280;15317;50.360;8.726;2022-12-08T08:39:35;98714.03;;;2.91;100.00
27984;BME280;15317;50.360;8.726;2022-12-08T08:43:37;98708.72;;;3.01;100.00
27984;BME280;15317;50.360;8.726;2022-12-08T08:47:39;98717.25;;;3.06;100.00
27984;BME280;15317;50.360;8.726;2022-12-08T08:51:43;98718.44;;;3.13;100.00
27984;BME280;15317;50.360;8.726;2022-12-08T08:55:45;98720.84;;;3.16;100.00
27984;BME280;15317;50.360;8.726;2022-12-08T08:59:47;98725.22;;;3.17;100.00
27984;BME280;15317;50.360;8.726;2022-12-08T09:03:50;98719.84;;;3.17;100.00
27984;BME280;15317;50.360;8.726;2022-12-08T09:07:53;98721.69;;;3.16;100.00
27984;BME280;15317;50.360;8.726;2022-12-08T09:11:56;98712.78;;;3.16;100.00
27984;BME280;15317;50.360;8.726;2022-12-08T09:15:59;98712.91;;;3.14;100.00
27984;BME280;15317;50.360;8.726;2022-12-08T09:20:02;98711.81;;;3.17;100.00
27984;BME280;15317;50.360;8.726;2022-12-08T09:24:06;98705.25;;;3.31;100.00
27984;BME280;15317;50.360;8.726;2022-12-08T09:28:15;98714.47;;;3.38;100.00
27984;BME280;15317;50.360;8.726;2022-12-08T09:32:17;98715.75;;;3.43;100.00
27984;BME280;15317;50.360;8.726;2022-12-08T09:36:19;98721.56;;;3.48;100.00
27984;BME280;15317;50.360;8.726;2022-12-08T09:40:24;98716.88;;;3.41;100.00
27984;BME280;15317;50.360;8.726;2022-12-08T09:44:47;98717.66;;;3.52;100.00
27984;BME280;15317;50.360;8.726;2022-12-08T09:48:53;98713.72;;;3.36;100.00
27984;BME280;15317;50.360;8.726;2022-12-08T09:52:59;98706.72;;;3.44;100.00
27984;BME280;15317;50.360;8.726;2022-12-08T09:57:06;98710.38;;;3.43;100.00
27984;BME280;15317;50.360;8.726;2022-12-08T10:01:13;98709.59;;;3.52;100.00
27984;BME280;15317;50.360;8.726;2022-12-08T10:05:16;98705.63;;;3.47;100.00
27984;BME280;15317;50.360;8.726;2022-12-08T10:09:27;98701.09;;;3.47;100.00
27984;BME280;15317;50.360;8.726;2022-12-08T10:13:37;98702.50;;;3.51;100.00
27984;BME280;15317;50.360;8.726;2022-12-08T10:17:45;98694.63;;;3.60;100.00
27984;BME280;15317;50.360;8.726;2022-12-08T10:21:48;98687.13;;;3.53;100.00
27984;BME280;15317;50.360;8.726;2022-12-08T10:25:55;98686.03;;;3.66;100.00
27984;BME280;15317;50.360;8.726;2022-12-08T10:30:00;98684.50;;;3.73;100.00
27984;BME280;15317;50.360;8.726;2022-12-08T10:34:14;98670.66;;;3.68;100.00
27984;BME280;15317;50.360;8.726;2022-12-08T10:38:22;98678.53;;;3.60;100.00
27984;BME280;15317;50.360;8.726;2022-12-08T10:42:35;98674.19;;;3.68;100.00
27984;BME280;15317;50.360;8.726;2022-12-08T10:46:39;98669.81;;;3.77;100.00
27984;BME280;15317;50.360;8.726;2022-12-08T10:50:43;98668.41;;;3.73;100.00
27984;BME280;15317;50.360;8.726;2022-12-08T10:54:47;98659.09;;;3.86;100.00
27984;BME280;15317;50.360;8.726;2022-12-08T10:59:05;98660.81;;;3.97;100.00
27984;BME280;15317;50.360;8.726;2022-12-08T11:03:21;98664.09;;;4.01;100.00
27984;BME280;15317;50.360;8.726;2022-12-08T11:07:26;98651.34;;;4.03;100.00
27984;BME280;15317;50.360;8.726;2022-12-08T11:11:37;98653.34;;;4.01;100.00
27984;BME280;15317;50.360;8.726;2022-12-08T11:15:39;98649.34;;;3.85;100.00
27984;BME280;15317;50.360;8.726;2022-12-08T11:19:53;98642.13;;;3.86;100.00
27984;BME280;15317;50.360;8.726;2022-12-08T11:23:56;98641.31;;;3.95;100.00
27984;BME280;15317;50.360;8.726;2022-12-08T11:27:59;98640.75;;;4.01;100.00
27984;BME280;15317;50.360;8.726;2022-12-08T11:32:06;98642.59;;;4.10;100.00
27984;BME280;15317;50.360;8.726;2022-12-08T11:36:14;98635.09;;;4.04;100.00
27984;BME280;15317;50.360;8.726;2022-12-08T11:40:22;98627.31;;;4.01;100.00
27984;BME280;15317;50.360;8.726;2022-12-08T11:44:32;98629.72;;;4.04;100.00
27984;BME280;15317;50.360;8.726;2022-12-08T11:48:44;98631.28;;;4.16;100.00
27984;BME280;15317;50.360;8.726;2022-12-08T11:52:49;98619.28;;;4.20;100.00
27984;BME280;15317;50.360;8.726;2022-12-08T11:56:53;98621.81;;;4.31;100.00
27984;BME280;15317;50.360;8.726;2022-12-08T12:00:56;98611.78;;;4.33;100.00
27984;BME280;15317;50.360;8.726;2022-12-08T12:05:02;98621.09;;;4.39;100.00
27984;BME280;15317;50.360;8.726;2022-12-08T12:09:12;98614.88;;;4.38;100.00
27984;BME280;15317;50.360;8.726;2022-12-08T12:17:49;98605.97;;;4.48;100.00
27984;BME280;15317;50.360;8.726;2022-12-08T12:21:55;98606.50;;;4.51;100.00
27984;BME280;15317;50.360;8.726;2022-12-08T12:26:02;98605.25;;;4.46;100.00
27984;BME280;15317;50.360;8.726;2022-12-08T12:30:07;98602.84;;;4.52;100.00
27984;BME280;15317;50.360;8.726;2022-12-08T12:34:14;98595.47;;;4.45;100.00
27984;BME280;15317;50.360;8.726;2022-12-08T12:38:21;98597.19;;;4.46;100.00
27984;BME280;15317;50.360;8.726;2022-12-08T12:42:45;98593.38;;;4.48;100.00
27984;BME280;15317;50.360;8.726;2022-12-08T12:46:54;98592.38;;;4.49;100.00
27984;BME280;15317;50.360;8.726;2022-12-08T12:50:56;98592.69;;;4.36;100.00
27984;BME280;15317;50.360;8.726;2022-12-08T12:55:22;98589.41;;;4.43;100.00
27984;BME280;15317;50.360;8.726;2022-12-08T12:59:43;98584.72;;;4.45;100.00
27984;BME280;15317;50.360;8.726;2022-12-08T13:03:47;98586.16;;;4.49;99.90
27984;BME280;15317;50.360;8.726;2022-12-08T13:07:53;98583.47;;;4.49;97.99
27984;BME280;15317;50.360;8.726;2022-12-08T13:11:59;98575.41;;;4.49;97.97
27984;BME280;15317;50.360;8.726;2022-12-08T13:16:10;98568.59;;;4.64;99.96
27984;BME280;15317;50.360;8.726;2022-12-08T13:20:18;98577.63;;;4.63;98.03
27984;BME280;15317;50.360;8.726;2022-12-08T13:24:31;98575.22;;;4.60;97.85
27984;BME280;15317;50.360;8.726;2022-12-08T13:29:14;98571.69;;;4.59;98.16
27984;BME280;15317;50.360;8.726;2022-12-08T13:33:22;98576.16;;;4.78;96.58
27984;BME280;15317;50.360;8.726;2022-12-08T13:37:27;98566.56;;;4.75;96.34
27984;BME280;15317;50.360;8.726;2022-12-08T13:41:37;98576.47;;;4.75;96.82
27984;BME280;15317;50.360;8.726;2022-12-08T13:45:44;98564.59;;;4.68;97.49
27984;BME280;15317;50.360;8.726;2022-12-08T13:49:50;98568.28;;;4.67;99.08
27984;BME280;15317;50.360;8.726;2022-12-08T13:53:59;98565.19;;;4.62;98.71
27984;BME280;15317;50.360;8.726;2022-12-08T13:58:02;98574.81;;;4.55;99.05
27984;BME280;15317;50.360;8.726;2022-12-08T14:02:15;98563.06;;;4.46;99.38
27984;BME280;15317;50.360;8.726;2022-12-08T14:06:21;98562.81;;;4.40;100.00
27984;BME280;15317;50.360;8.726;2022-12-08T14:10:28;98563.78;;;4.38;100.00
27984;BME280;15317;50.360;8.726;2022-12-08T14:14:33;98574.53;;;4.38;100.00
27984;BME280;15317;50.360;8.726;2022-12-08T14:18:38;98572.84;;;4.37;100.00
27984;BME280;15317;50.360;8.726;2022-12-08T14:22:40;98569.47;;;4.35;100.00
27984;BME280;15317;50.360;8.726;2022-12-08T14:26:44;98564.69;;;4.29;100.00
27984;BME280;15317;50.360;8.726;2022-12-08T14:30:47;98568.91;;;4.22;100.00
27984;BME280;15317;50.360;8.726;2022-12-08T14:34:56;98564.94;;;4.17;100.00
27984;BME280;15317;50.360;8.726;2022-12-08T14:38:58;98569.63;;;4.15;100.00
27984;BME280;15317;50.360;8.726;2022-12-08T14:43:13;98569.91;;;4.12;100.00
27984;BME280;15317;50.360;8.726;2022-12-08T14:47:18;98566.66;;;4.08;100.00
27984;BME280;15317;50.360;8.726;2022-12-08T14:51:25;98570.59;;;4.04;100.00
27984;BME280;15317;50.360;8.726;2022-12-08T14:55:33;98580.22;;;3.97;100.00
27984;BME280;15317;50.360;8.726;2022-12-08T14:59:36;98586.16;;;3.91;100.00
27984;BME280;15317;50.360;8.726;2022-12-08T15:03:40;98580.09;;;3.89;100.00
27984;BME280;15317;50.360;8.726;2022-12-08T15:07:48;98575.53;;;3.80;100.00
27984;BME280;15317;50.360;8.726;2022-12-08T15:11:59;98579.66;;;3.74;100.00
27984;BME280;15317;50.360;8.726;2022-12-08T15:16:24;98577.66;;;3.67;100.00
27984;BME280;15317;50.360;8.726;2022-12-08T15:20:33;98585.13;;;3.63;100.00
27984;BME280;15317;50.360;8.726;2022-12-08T15:24:41;98584.81;;;3.56;100.00
27984;BME280;15317;50.360;8.726;2022-12-08T15:28:43;98585.25;;;3.52;100.00
27984;BME280;15317;50.360;8.726;2022-12-08T15:32:45;98581.00;;;3.49;100.00
27984;BME280;15317;50.360;8.726;2022-12-08T15:36:49;98584.09;;;3.45;100.00
27984;BME280;15317;50.360;8.726;2022-12-08T15:40:54;98583.50;;;3.41;100.00
27984;BME280;15317;50.360;8.726;2022-12-08T15:44:56;98581.25;;;3.37;100.00
27984;BME280;15317;50.360;8.726;2022-12-08T15:48:58;98578.97;;;3.32;100.00
27984;BME280;15317;50.360;8.726;2022-12-08T15:53:00;98577.03;;;3.34;100.00
27984;BME280;15317;50.360;8.726;2022-12-08T15:57:04;98579.25;;;3.29;100.00
27984;BME280;15317;50.360;8.726;2022-12-08T16:01:06;98575.88;;;3.27;100.00
27984;BME280;15317;50.360;8.726;2022-12-08T16:05:08;98576.69;;;3.28;100.00
27984;BME280;15317;50.360;8.726;2022-12-08T16:09:14;98570.50;;;3.27;100.00
27984;BME280;15317;50.360;8.726;2022-12-08T16:13:20;98567.09;;;3.35;100.00
27984;BME280;15317;50.360;8.726;2022-12-08T16:17:40;98566.59;;;3.41;100.00
27984;BME280;15317;50.360;8.726;2022-12-08T16:21:42;98565.56;;;3.42;100.00
27984;BME280;15317;50.360;8.726;2022-12-08T16:25:44;98564.31;;;3.46;100.00
27984;BME280;15317;50.360;8.726;2022-12-08T16:29:48;98572.25;;;3.47;100.00
27984;BME280;15317;50.360;8.726;2022-12-08T16:33:51;98574.63;;;3.50;100.00
27984;BME280;15317;50.360;8.726;2022-12-08T16:37:53;98578.19;;;3.51;100.00
27984;BME280;15317;50.360;8.726;2022-12-08T16:41:55;98579.28;;;3.48;100.00
27984;BME280;15317;50.360;8.726;2022-12-08T16:46:18;98576.03;;;3.45;100.00
27984;BME280;15317;50.360;8.726;2022-12-08T16:50:24;98582.53;;;3.42;100.00
27984;BME280;15317;50.360;8.726;2022-12-08T16:54:27;98568.66;;;3.37;100.00
27984;BME280;15317;50.360;8.726;2022-12-08T16:58:30;98572.47;;;3.35;100.00
27984;BME280;15317;50.360;8.726;2022-12-08T17:02:33;98573.63;;;3.32;100.00
27984;BME280;15317;50.360;8.726;2022-12-08T17:06:35;98579.84;;;3.33;100.00
27984;BME280;15317;50.360;8.726;2022-12-08T17:10:38;98571.78;;;3.33;100.00
27984;BME280;15317;50.360;8.726;2022-12-08T17:14:41;98569.78;;;3.35;100.00
27984;BME280;15317;50.360;8.726;2022-12-08T17:18:44;98580.94;;;3.30;100.00
27984;BME280;15317;50.360;8.726;2022-12-08T17:22:47;98572.47;;;3.25;100.00
27984;BME280;15317;50.360;8.726;2022-12-08T17:26:49;98564.41;;;3.25;100.00
27984;BME280;15317;50.360;8.726;2022-12-08T17:30:52;98562.44;;;3.27;100.00
27984;BME280;15317;50.360;8.726;2022-12-08T17:34:56;98560.03;;;3.24;100.00
27984;BME280;15317;50.360;8.726;2022-12-08T17:38:58;98562.97;;;3.21;100.00
27984;BME280;15317;50.360;8.726;2022-12-08T17:43:01;98564.09;;;3.18;100.00
27984;BME280;15317;50.360;8.726;2022-12-08T17:47:03;98565.22;;;3.16;100.00
27984;BME280;15317;50.360;8.726;2022-12-08T17:51:09;98559.41;;;3.11;100.00
27984;BME280;15317;50.360;8.726;2022-12-08T17:55:11;98562.09;;;3.11;100.00
27984;BME280;15317;50.360;8.726;2022-12-08T17:59:13;98560.69;;;3.07;100.00
27984;BME280;15317;50.360;8.726;2022-12-08T18:03:16;98558.25;;;3.04;100.00
27984;BME280;15317;50.360;8.726;2022-12-08T18:07:19;98554.97;;;3.00;100.00
27984;BME280;15317;50.360;8.726;2022-12-08T18:11:21;98551.19;;;3.03;100.00
27984;BME280;15317;50.360;8.726;2022-12-08T18:15:24;98551.19;;;3.03;100.00
27984;BME280;15317;50.360;8.726;2022-12-08T18:19:26;98550.63;;;2.99;100.00
27984;BME280;15317;50.360;8.726;2022-12-08T18:23:30;98540.75;;;3.00;100.00
27984;BME280;15317;50.360;8.726;2022-12-08T18:27:32;98557.63;;;2.91;100.00
27984;BME280;15317;50.360;8.726;2022-12-08T18:31:34;98561.03;;;2.93;100.00
27984;BME280;15317;50.360;8.726;2022-12-08T18:35:38;98559.88;;;2.86;100.00
27984;BME280;15317;50.360;8.726;2022-12-08T18:39:42;98563.53;;;2.85;100.00
27984;BME280;15317;50.360;8.726;2022-12-08T18:43:44;98559.16;;;2.84;100.00
27984;BME280;15317;50.360;8.726;2022-12-08T18:47:47;98563.81;;;2.82;100.00
27984;BME280;15317;50.360;8.726;2022-12-08T18:51:50;98568.19;;;2.83;100.00
27984;BME280;15317;50.360;8.726;2022-12-08T18:55:54;98559.69;;;2.77;100.00
27984;BME280;15317;50.360;8.726;2022-12-08T18:59:56;98555.31;;;2.76;100.00
27984;BME280;15317;50.360;8.726;2022-12-08T19:03:58;98558.00;;;2.76;100.00
27984;BME280;15317;50.360;8.726;2022-12-08T19:08:00;98561.66;;;2.75;100.00
27984;BME280;15317;50.360;8.726;2022-12-08T19:12:04;98562.75;;;2.73;100.00
27984;BME280;15317;50.360;8.726;2022-12-08T19:16:06;98570.22;;;2.69;100.00
27984;BME280;15317;50.360;8.726;2022-12-08T19:20:10;98564.03;;;2.69;100.00
27984;BME280;15317;50.360;8.726;2022-12-08T19:24:12;98563.28;;;2.67;100.00
27984;BME280;15317;50.360;8.726;2022-12-08T19:28:16;98559.19;;;2.63;100.00
27984;BME280;15317;50.360;8.726;2022-12-08T19:32:18;98563.25;;;2.57;100.00
27984;BME280;15317;50.360;8.726;2022-12-08T19:36:21;98566.19;;;2.54;100.00
27984;BME280;15317;50.360;8.726;2022-12-08T19:40:23;98563.78;;;2.51;100.00
27984;BME280;15317;50.360;8.726;2022-12-08T19:44:41;98568.28;;;2.51;100.00
27984;BME280;15317;50.360;8.726;2022-12-08T19:48:55;98567.44;;;2.50;100.00
27984;BME280;15317;50.360;8.726;2022-12-08T19:52:58;98562.09;;;2.50;100.00
27984;BME280;15317;50.360;8.726;2022-12-08T19:57:00;98564.63;;;2.52;100.00
27984;BME280;15317;50.360;8.726;2022-12-08T20:01:04;98565.50;;;2.52;100.00
27984;BME280;15317;50.360;8.726;2022-12-08T20:05:07;98563.63;;;2.53;100.00
27984;BME280;15317;50.360;8.726;2022-12-08T20:09:11;98564.47;;;2.53;100.00
27984;BME280;15317;50.360;8.726;2022-12-08T20:13:14;98564.47;;;2.53;100.00
27984;BME280;15317;50.360;8.726;2022-12-08T20:17:35;98568.41;;;2.49;100.00
27984;BME280;15317;50.360;8.726;2022-12-08T20:21:37;98564.88;;;2.49;100.00
27984;BME280;15317;50.360;8.726;2022-12-08T20:25:41;98567.69;;;2.47;100.00
27984;BME280;15317;50.360;8.726;2022-12-08T20:29:44;98559.94;;;2.44;100.00
27984;BME280;15317;50.360;8.726;2022-12-08T20:33:48;98564.44;;;2.44;100.00
27984;BME280;15317;50.360;8.726;2022-12-08T20:37:50;98561.03;;;2.42;100.00
27984;BME280;15317;50.360;8.726;2022-12-08T20:41:52;98558.75;;;2.37;100.00
27984;BME280;15317;50.360;8.726;2022-12-08T20:45:55;98557.47;;;2.31;100.00
27984;BME280;15317;50.360;8.726;2022-12-08T20:49:59;98563.19;;;2.27;100.00
27984;BME280;15317;50.360;8.726;2022-12-08T20:54:01;98566.16;;;2.24;100.00
27984;BME280;15317;50.360;8.726;2022-12-08T20:58:04;98570.78;;;2.22;100.00
27984;BME280;15317;50.360;8.726;2022-12-08T21:02:06;98573.34;;;2.23;100.00
27984;BME280;15317;50.360;8.726;2022-12-08T21:06:11;98571.50;;;2.24;100.00
27984;BME280;15317;50.360;8.726;2022-12-08T21:10:13;98569.53;;;2.26;100.00
27984;BME280;15317;50.360;8.726;2022-12-08T21:14:15;98572.19;;;2.26;100.00
27984;BME280;15317;50.360;8.726;2022-12-08T21:18:17;98569.69;;;2.24;100.00
27984;BME280;15317;50.360;8.726;2022-12-08T21:22:21;98576.38;;;2.19;100.00
27984;BME280;15317;50.360;8.726;2022-12-08T21:26:23;98576.66;;;2.16;100.00
27984;BME280;15317;50.360;8.726;2022-12-08T21:30:26;98573.25;;;2.14;100.00
27984;BME280;15317;50.360;8.726;2022-12-08T21:34:28;98575.19;;;2.12;100.00
27984;BME280;15317;50.360;8.726;2022-12-08T21:38:32;98582.41;;;2.11;100.00
27984;BME280;15317;50.360;8.726;2022-12-08T21:42:35;98567.44;;;2.09;100.00
27984;BME280;15317;50.360;8.726;2022-12-08T21:46:46;98569.38;;;2.07;100.00